sensor_id;sensor_type;location;lat;lon;timestamp;P1;durP1;ratioP1;P2;durP2;ratioP2
13743;SDS011;6943;52.368;9.966;2023-02-14T00:02:07;23.50;;;13.80;;
13743;SDS011;6943;52.368;9.966;2023-02-14T00:04:32;23.80;;;13.97;;
13743;SDS011;6943;52.368;9.966;2023-02-14T00:06:58;22.57;;;13.77;;
13743;SDS011;6943;52.368;9.966;2023-02-14T00:09:25;26.30;;;16.07;;
13743;SDS011;6943;52.368;9.966;2023-02-14T00:11:51;26.77;;;15.13;;
13743;SDS011;6943;52.368;9.966;2023-02-14T00:14:17;25.27;;;15.90;;
13743;SDS011;6943;52.368;9.966;2023-02-14T00:17:01;27.47;;;16.53;;
13743;SDS011;6943;52.368;9.966;2023-02-14T00:19:26;29.13;;;16.77;;
13743;SDS011;6943;52.368;9.966;2023-02-14T00:21:52;25.83;;;16.30;;
13743;SDS011;6943;52.368;9.966;2023-02-14T00:24:21;29.53;;;16.33;;
13743;SDS011;6943;52.368;9.966;2023-02-14T00:26:49;29.10;;;16.43;;
13743;SDS011;6943;52.368;9.966;2023-02-14T00:29:17;23.23;;;14.87;;
13743;SDS011;6943;52.368;9.966;2023-02-14T00:31:45;30.00;;;18.47;;
13743;SDS011;6943;52.368;9.966;2023-02-14T00:34:11;30.60;;;18.37;;
13743;SDS011;6943;52.368;9.966;2023-02-14T00:36:38;28.87;;;16.73;;
13743;SDS011;6943;52.368;9.966;2023-02-14T00:39:04;29.00;;;17.00;;
13743;SDS011;6943;52.368;9.966;2023-02-14T00:41:30;27.07;;;16.80;;
13743;SDS011;6943;52.368;9.966;2023-02-14T00:43:56;28.67;;;16.03;;
13743;SDS011;6943;52.368;9.966;2023-02-14T00:46:22;33.57;;;17.97;;
13743;SDS011;6943;52.368;9.966;2023-02-14T00:48:48;29.57;;;16.93;;
13743;SDS011;6943;52.368;9.966;2023-02-14T00:51:14;29.30;;;16.70;;
13743;SDS011;6943;52.368;9.966;2023-02-14T00:53:40;28.30;;;15.60;;
13743;SDS011;6943;52.368;9.966;2023-02-14T00:56:05;30.80;;;17.77;;
13743;SDS011;6943;52.368;9.966;2023-02-14T00:58:31;31.93;;;18.20;;
13743;SDS011;6943;52.368;9.966;2023-02-14T01:00:57;32.73;;;17.40;;
13743;SDS011;6943;52.368;9.966;2023-02-14T01:03:23;31.67;;;18.97;;
13743;SDS011;6943;52.368;9.966;2023-02-14T01:05:49;32.50;;;17.87;;
13743;SDS011;6943;52.368;9.966;2023-02-14T01:08:16;35.07;;;19.47;;
13743;SDS011;6943;52.368;9.966;2023-02-14T01:10:42;38.00;;;19.20;;
13743;SDS011;6943;52.368;9.966;2023-02-14T01:13:08;34.77;;;20.13;;
13743;SDS011;6943;52.368;9.966;2023-02-14T01:15:37;34.53;;;20.27;;
13743;SDS011;6943;52.368;9.966;2023-02-14T01:18:07;39.40;;;20.00;;
13743;SDS011;6943;52.368;9.966;2023-02-14T01:20:32;38.13;;;20.43;;
13743;SDS011;6943;52.368;9.966;2023-02-14T01:22:58;38.47;;;20.80;;
13743;SDS011;6943;52.368;9.966;2023-02-14T01:25:24;40.77;;;22.33;;
13743;SDS011;6943;52.368;9.966;2023-02-14T01:27:50;37.97;;;20.90;;
13743;SDS011;6943;52.368;9.966;2023-02-14T01:30:15;39.73;;;21.00;;
13743;SDS011;6943;52.368;9.966;2023-02-14T01:32:41;39.47;;;21.23;;
13743;SDS011;6943;52.368;9.966;2023-02-14T01:35:07;43.47;;;22.23;;
13743;SDS011;6943;52.368;9.966;2023-02-14T01:37:33;39.33;;;22.60;;
13743;SDS011;6943;52.368;9.966;2023-02-14T01:39:58;39.13;;;22.60;;
13743;SDS011;6943;52.368;9.966;2023-02-14T01:42:24;41.77;;;22.43;;
13743;SDS011;6943;52.368;9.966;2023-02-14T01:44:55;44.60;;;24.20;;
13743;SDS011;6943;52.368;9.966;2023-02-14T01:47:22;37.57;;;20.37;;
13743;SDS011;6943;52.368;9.966;2023-02-14T01:49:51;39.47;;;22.13;;
13743;SDS011;6943;52.368;9.966;2023-02-14T01:52:23;43.43;;;23.20;;
13743;SDS011;6943;52.368;9.966;2023-02-14T01:54:56;43.50;;;22.77;;
13743;SDS011;6943;52.368;9.966;2023-02-14T01:57:30;38.30;;;21.97;;
13743;SDS011;6943;52.368;9.966;2023-02-14T02:00:03;42.47;;;22.60;;
13743;SDS011;6943;52.368;9.966;2023-02-14T02:03:05;44.30;;;22.53;;
13743;SDS011;6943;52.368;9.966;2023-02-14T02:05:33;39.53;;;22.73;;
13743;SDS011;6943;52.368;9.966;2023-02-14T02:08:01;36.90;;;21.93;;
13743;SDS011;6943;52.368;9.966;2023-02-14T02:10:28;38.93;;;22.00;;
13743;SDS011;6943;52.368;9.966;2023-02-14T02:12:53;42.43;;;22.63;;
13743;SDS011;6943;52.368;9.966;2023-02-14T02:15:20;39.83;;;23.50;;
13743;SDS011;6943;52.368;9.966;2023-02-14T02:17:58;45.43;;;23.93;;
13743;SDS011;6943;52.368;9.966;2023-02-14T02:24:08;38.57;;;21.43;;
13743;SDS011;6943;52.368;9.966;2023-02-14T02:26:51;41.03;;;22.73;;
13743;SDS011;6943;52.368;9.966;2023-02-14T02:33:04;41.83;;;23.33;;
13743;SDS011;6943;52.368;9.966;2023-02-14T02:36:27;37.50;;;21.17;;
13743;SDS011;6943;52.368;9.966;2023-02-14T02:39:07;43.23;;;22.93;;
13743;SDS011;6943;52.368;9.966;2023-02-14T02:41:46;44.33;;;22.43;;
13743;SDS011;6943;52.368;9.966;2023-02-14T02:44:42;40.40;;;22.37;;
13743;SDS011;6943;52.368;9.966;2023-02-14T02:49:55;40.03;;;21.53;;
13743;SDS011;6943;52.368;9.966;2023-02-14T02:52:42;37.00;;;22.03;;
13743;SDS011;6943;52.368;9.966;2023-02-14T02:58:34;42.00;;;22.53;;
13743;SDS011;6943;52.368;9.966;2023-02-14T03:01:06;39.50;;;22.73;;
13743;SDS011;6943;52.368;9.966;2023-02-14T03:03:36;43.37;;;22.67;;
13743;SDS011;6943;52.368;9.966;2023-02-14T03:06:22;36.20;;;21.17;;
13743;SDS011;6943;52.368;9.966;2023-02-14T03:08:47;39.70;;;22.67;;
13743;SDS011;6943;52.368;9.966;2023-02-14T03:11:13;38.00;;;22.63;;
13743;SDS011;6943;52.368;9.966;2023-02-14T03:13:46;37.20;;;22.37;;
13743;SDS011;6943;52.368;9.966;2023-02-14T03:16:32;41.03;;;22.67;;
13743;SDS011;6943;52.368;9.966;2023-02-14T03:22:02;40.17;;;22.33;;
13743;SDS011;6943;52.368;9.966;2023-02-14T03:24:44;40.50;;;22.80;;
13743;SDS011;6943;52.368;9.966;2023-02-14T03:27:16;43.80;;;23.57;;
13743;SDS011;6943;52.368;9.966;2023-02-14T03:32:36;39.57;;;23.33;;
13743;SDS011;6943;52.368;9.966;2023-02-14T03:35:20;40.90;;;23.43;;
13743;SDS011;6943;52.368;9.966;2023-02-14T03:38:06;42.53;;;23.17;;
13743;SDS011;6943;52.368;9.966;2023-02-14T03:40:46;39.60;;;21.30;;
13743;SDS011;6943;52.368;9.966;2023-02-14T03:43:20;45.17;;;23.20;;
13743;SDS011;6943;52.368;9.966;2023-02-14T03:45:57;39.10;;;22.13;;
13743;SDS011;6943;52.368;9.966;2023-02-14T03:48:29;38.93;;;23.33;;
13743;SDS011;6943;52.368;9.966;2023-02-14T03:50:57;41.30;;;22.70;;
13743;SDS011;6943;52.368;9.966;2023-02-14T03:53:24;38.30;;;21.90;;
13743;SDS011;6943;52.368;9.966;2023-02-14T03:58:38;36.57;;;21.83;;
13743;SDS011;6943;52.368;9.966;2023-02-14T04:01:15;40.20;;;22.53;;
13743;SDS011;6943;52.368;9.966;2023-02-14T04:03:45;36.93;;;22.23;;
13743;SDS011;6943;52.368;9.966;2023-02-14T04:06:11;40.47;;;22.47;;
13743;SDS011;6943;52.368;9.966;2023-02-14T04:08:37;35.07;;;21.53;;
13743;SDS011;6943;52.368;9.966;2023-02-14T04:11:03;36.23;;;21.90;;
13743;SDS011;6943;52.368;9.966;2023-02-14T04:13:29;38.93;;;20.87;;
13743;SDS011;6943;52.368;9.966;2023-02-14T04:15:55;38.27;;;20.80;;
13743;SDS011;6943;52.368;9.966;2023-02-14T04:18:21;39.23;;;21.27;;
13743;SDS011;6943;52.368;9.966;2023-02-14T04:21:06;36.17;;;20.43;;
13743;SDS011;6943;52.368;9.966;2023-02-14T04:23:32;40.30;;;21.37;;
13743;SDS011;6943;52.368;9.966;2023-02-14T04:25:57;34.57;;;20.00;;
13743;SDS011;6943;52.368;9.966;2023-02-14T04:28:23;37.90;;;22.67;;
13743;SDS011;6943;52.368;9.966;2023-02-14T04:30:48;39.33;;;22.20;;
13743;SDS011;6943;52.368;9.966;2023-02-14T04:33:14;40.17;;;20.73;;
13743;SDS011;6943;52.368;9.966;2023-02-14T04:35:39;32.53;;;19.77;;
13743;SDS011;6943;52.368;9.966;2023-02-14T04:38:05;33.53;;;20.53;;
13743;SDS011;6943;52.368;9.966;2023-02-14T04:40:30;33.20;;;20.23;;
13743;SDS011;6943;52.368;9.966;2023-02-14T04:42:56;32.80;;;18.63;;
13743;SDS011;6943;52.368;9.966;2023-02-14T04:45:21;33.63;;;19.17;;
13743;SDS011;6943;52.368;9.966;2023-02-14T04:47:47;35.23;;;20.17;;
13743;SDS011;6943;52.368;9.966;2023-02-14T04:50:13;33.57;;;19.13;;
13743;SDS011;6943;52.368;9.966;2023-02-14T04:52:39;32.80;;;19.80;;
13743;SDS011;6943;52.368;9.966;2023-02-14T04:55:04;31.63;;;18.93;;
13743;SDS011;6943;52.368;9.966;2023-02-14T04:57:30;35.10;;;17.87;;
13743;SDS011;6943;52.368;9.966;2023-02-14T04:59:56;34.17;;;19.70;;
13743;SDS011;6943;52.368;9.966;2023-02-14T05:02:21;33.93;;;19.67;;
13743;SDS011;6943;52.368;9.966;2023-02-14T05:04:47;42.70;;;20.73;;
13743;SDS011;6943;52.368;9.966;2023-02-14T05:07:12;45.50;;;21.00;;
13743;SDS011;6943;52.368;9.966;2023-02-14T05:09:38;37.73;;;19.53;;
13743;SDS011;6943;52.368;9.966;2023-02-14T05:12:03;38.63;;;19.50;;
13743;SDS011;6943;52.368;9.966;2023-02-14T05:14:29;81.90;;;22.27;;
13743;SDS011;6943;52.368;9.966;2023-02-14T05:16:54;57.33;;;21.67;;
13743;SDS011;6943;52.368;9.966;2023-02-14T05:19:20;39.43;;;19.83;;
13743;SDS011;6943;52.368;9.966;2023-02-14T05:21:45;31.30;;;17.70;;
13743;SDS011;6943;52.368;9.966;2023-02-14T05:24:11;29.97;;;17.33;;
13743;SDS011;6943;52.368;9.966;2023-02-14T05:26:36;32.27;;;18.23;;
13743;SDS011;6943;52.368;9.966;2023-02-14T05:29:02;39.77;;;16.53;;
13743;SDS011;6943;52.368;9.966;2023-02-14T05:31:28;44.43;;;17.87;;
13743;SDS011;6943;52.368;9.966;2023-02-14T05:33:53;42.97;;;17.43;;
13743;SDS011;6943;52.368;9.966;2023-02-14T05:36:19;71.83;;;22.43;;
13743;SDS011;6943;52.368;9.966;2023-02-14T05:38:44;55.87;;;17.53;;
13743;SDS011;6943;52.368;9.966;2023-02-14T05:41:09;69.10;;;18.90;;
13743;SDS011;6943;52.368;9.966;2023-02-14T05:43:35;51.93;;;17.47;;
13743;SDS011;6943;52.368;9.966;2023-02-14T05:46:01;49.83;;;17.13;;
13743;SDS011;6943;52.368;9.966;2023-02-14T05:48:26;54.53;;;17.43;;
13743;SDS011;6943;52.368;9.966;2023-02-14T05:50:51;42.53;;;15.40;;
13743;SDS011;6943;52.368;9.966;2023-02-14T05:53:17;32.83;;;15.27;;
13743;SDS011;6943;52.368;9.966;2023-02-14T05:55:42;41.57;;;15.60;;
13743;SDS011;6943;52.368;9.966;2023-02-14T05:58:08;49.53;;;15.23;;
13743;SDS011;6943;52.368;9.966;2023-02-14T06:00:34;31.70;;;13.97;;
13743;SDS011;6943;52.368;9.966;2023-02-14T06:03:01;31.03;;;14.17;;
13743;SDS011;6943;52.368;9.966;2023-02-14T06:05:26;29.47;;;12.30;;
13743;SDS011;6943;52.368;9.966;2023-02-14T06:07:52;35.83;;;14.10;;
13743;SDS011;6943;52.368;9.966;2023-02-14T06:10:23;57.70;;;14.63;;
13743;SDS011;6943;52.368;9.966;2023-02-14T06:12:49;29.73;;;14.27;;
13743;SDS011;6943;52.368;9.966;2023-02-14T06:15:16;25.13;;;13.53;;
13743;SDS011;6943;52.368;9.966;2023-02-14T06:17:42;23.03;;;13.53;;
13743;SDS011;6943;52.368;9.966;2023-02-14T06:20:09;22.10;;;12.83;;
13743;SDS011;6943;52.368;9.966;2023-02-14T06:22:36;24.50;;;12.63;;
13743;SDS011;6943;52.368;9.966;2023-02-14T06:25:03;24.70;;;12.77;;
13743;SDS011;6943;52.368;9.966;2023-02-14T06:27:29;23.93;;;11.50;;
13743;SDS011;6943;52.368;9.966;2023-02-14T06:29:55;29.10;;;11.93;;
13743;SDS011;6943;52.368;9.966;2023-02-14T06:32:21;18.03;;;11.57;;
13743;SDS011;6943;52.368;9.966;2023-02-14T06:34:46;21.10;;;11.27;;
13743;SDS011;6943;52.368;9.966;2023-02-14T06:37:12;20.37;;;11.43;;
13743;SDS011;6943;52.368;9.966;2023-02-14T06:39:37;21.13;;;11.03;;
13743;SDS011;6943;52.368;9.966;2023-02-14T06:42:03;20.40;;;11.27;;
13743;SDS011;6943;52.368;9.966;2023-02-14T06:44:28;21.13;;;11.40;;
13743;SDS011;6943;52.368;9.966;2023-02-14T06:46:54;22.17;;;10.67;;
13743;SDS011;6943;52.368;9.966;2023-02-14T06:49:19;18.03;;;11.50;;
13743;SDS011;6943;52.368;9.966;2023-02-14T06:51:45;16.10;;;10.30;;
13743;SDS011;6943;52.368;9.966;2023-02-14T06:54:10;15.73;;;10.70;;
13743;SDS011;6943;52.368;9.966;2023-02-14T06:56:36;16.77;;;11.00;;
13743;SDS011;6943;52.368;9.966;2023-02-14T06:59:03;15.23;;;10.70;;
13743;SDS011;6943;52.368;9.966;2023-02-14T07:01:28;20.70;;;10.97;;
13743;SDS011;6943;52.368;9.966;2023-02-14T07:03:54;24.13;;;12.03;;
13743;SDS011;6943;52.368;9.966;2023-02-14T07:06:19;33.97;;;11.80;;
13743;SDS011;6943;52.368;9.966;2023-02-14T07:08:44;21.93;;;11.80;;
13743;SDS011;6943;52.368;9.966;2023-02-14T07:11:10;18.33;;;11.23;;
13743;SDS011;6943;52.368;9.966;2023-02-14T07:13:36;17.63;;;10.97;;
13743;SDS011;6943;52.368;9.966;2023-02-14T07:16:01;15.67;;;11.00;;
13743;SDS011;6943;52.368;9.966;2023-02-14T07:18:27;17.07;;;11.17;;
13743;SDS011;6943;52.368;9.966;2023-02-14T07:20:52;16.90;;;11.83;;
13743;SDS011;6943;52.368;9.966;2023-02-14T07:23:18;14.17;;;10.50;;
13743;SDS011;6943;52.368;9.966;2023-02-14T07:25:44;15.00;;;11.03;;
13743;SDS011;6943;52.368;9.966;2023-02-14T07:28:09;16.40;;;11.07;;
13743;SDS011;6943;52.368;9.966;2023-02-14T07:30:35;15.80;;;11.27;;
13743;SDS011;6943;52.368;9.966;2023-02-14T07:33:00;17.10;;;12.00;;
13743;SDS011;6943;52.368;9.966;2023-02-14T07:35:26;15.20;;;10.87;;
13743;SDS011;6943;52.368;9.966;2023-02-14T07:37:52;14.67;;;10.33;;
13743;SDS011;6943;52.368;9.966;2023-02-14T07:40:18;15.13;;;11.37;;
13743;SDS011;6943;52.368;9.966;2023-02-14T07:42:44;15.23;;;10.97;;
13743;SDS011;6943;52.368;9.966;2023-02-14T07:45:20;13.77;;;10.37;;
13743;SDS011;6943;52.368;9.966;2023-02-14T07:47:49;15.87;;;11.17;;
13743;SDS011;6943;52.368;9.966;2023-02-14T07:50:16;13.43;;;10.13;;
13743;SDS011;6943;52.368;9.966;2023-02-14T07:52:42;13.60;;;9.57;;
13743;SDS011;6943;52.368;9.966;2023-02-14T07:55:08;15.63;;;10.57;;
13743;SDS011;6943;52.368;9.966;2023-02-14T07:57:34;13.70;;;10.57;;
13743;SDS011;6943;52.368;9.966;2023-02-14T08:00:00;10.83;;;9.43;;
13743;SDS011;6943;52.368;9.966;2023-02-14T08:02:25;12.60;;;9.47;;
13743;SDS011;6943;52.368;9.966;2023-02-14T08:04:51;11.40;;;10.17;;
13743;SDS011;6943;52.368;9.966;2023-02-14T08:07:16;9.30;;;8.27;;
13743;SDS011;6943;52.368;9.966;2023-02-14T08:09:42;10.67;;;8.60;;
13743;SDS011;6943;52.368;9.966;2023-02-14T08:12:08;10.00;;;9.00;;
13743;SDS011;6943;52.368;9.966;2023-02-14T08:14:52;11.43;;;9.53;;
13743;SDS011;6943;52.368;9.966;2023-02-14T08:17:18;10.30;;;8.37;;
13743;SDS011;6943;52.368;9.966;2023-02-14T08:19:43;10.63;;;8.73;;
13743;SDS011;6943;52.368;9.966;2023-02-14T08:22:09;10.40;;;8.77;;
13743;SDS011;6943;52.368;9.966;2023-02-14T08:24:35;9.70;;;8.70;;
13743;SDS011;6943;52.368;9.966;2023-02-14T08:27:01;11.87;;;9.50;;
13743;SDS011;6943;52.368;9.966;2023-02-14T08:29:27;9.37;;;8.43;;
13743;SDS011;6943;52.368;9.966;2023-02-14T08:31:52;9.33;;;8.43;;
13743;SDS011;6943;52.368;9.966;2023-02-14T08:34:18;10.80;;;9.07;;
13743;SDS011;6943;52.368;9.966;2023-02-14T08:36:43;10.13;;;9.07;;
13743;SDS011;6943;52.368;9.966;2023-02-14T08:39:09;9.27;;;8.37;;
13743;SDS011;6943;52.368;9.966;2023-02-14T08:41:35;9.63;;;8.63;;
13743;SDS011;6943;52.368;9.966;2023-02-14T08:44:00;11.27;;;9.43;;
13743;SDS011;6943;52.368;9.966;2023-02-14T08:46:27;10.00;;;8.90;;
13743;SDS011;6943;52.368;9.966;2023-02-14T08:48:52;10.67;;;9.40;;
13743;SDS011;6943;52.368;9.966;2023-02-14T08:51:19;10.03;;;9.03;;
13743;SDS011;6943;52.368;9.966;2023-02-14T08:53:48;10.13;;;9.03;;
13743;SDS011;6943;52.368;9.966;2023-02-14T08:56:14;11.83;;;9.23;;
13743;SDS011;6943;52.368;9.966;2023-02-14T08:58:40;9.80;;;8.77;;
13743;SDS011;6943;52.368;9.966;2023-02-14T09:01:15;10.17;;;9.10;;
13743;SDS011;6943;52.368;9.966;2023-02-14T09:03:41;10.63;;;9.53;;
13743;SDS011;6943;52.368;9.966;2023-02-14T09:06:08;10.07;;;8.97;;
13743;SDS011;6943;52.368;9.966;2023-02-14T09:08:36;11.23;;;9.97;;
13743;SDS011;6943;52.368;9.966;2023-02-14T09:11:10;10.43;;;9.33;;
13743;SDS011;6943;52.368;9.966;2023-02-14T09:13:44;12.60;;;10.43;;
13743;SDS011;6943;52.368;9.966;2023-02-14T09:16:10;11.03;;;9.90;;
13743;SDS011;6943;52.368;9.966;2023-02-14T09:18:37;11.30;;;10.03;;
13743;SDS011;6943;52.368;9.966;2023-02-14T09:21:07;10.80;;;9.70;;
13743;SDS011;6943;52.368;9.966;2023-02-14T09:23:34;13.07;;;9.83;;
13743;SDS011;6943;52.368;9.966;2023-02-14T09:26:00;11.77;;;9.87;;
13743;SDS011;6943;52.368;9.966;2023-02-14T09:28:26;10.70;;;9.27;;
13743;SDS011;6943;52.368;9.966;2023-02-14T09:30:52;10.83;;;9.57;;
13743;SDS011;6943;52.368;9.966;2023-02-14T09:33:18;10.47;;;9.37;;
13743;SDS011;6943;52.368;9.966;2023-02-14T09:35:43;10.87;;;9.77;;
13743;SDS011;6943;52.368;9.966;2023-02-14T09:38:27;11.50;;;10.30;;
13743;SDS011;6943;52.368;9.966;2023-02-14T09:40:53;11.37;;;10.03;;
13743;SDS011;6943;52.368;9.966;2023-02-14T09:43:24;12.20;;;10.37;;
13743;SDS011;6943;52.368;9.966;2023-02-14T09:46:01;11.53;;;10.33;;
13743;SDS011;6943;52.368;9.966;2023-02-14T09:48:32;10.63;;;9.53;;
13743;SDS011;6943;52.368;9.966;2023-02-14T09:51:16;12.20;;;10.40;;
13743;SDS011;6943;52.368;9.966;2023-02-14T09:54:29;13.47;;;10.47;;
13743;SDS011;6943;52.368;9.966;2023-02-14T09:56:45;12.30;;;10.33;;
13743;SDS011;6943;52.368;9.966;2023-02-14T09:59:23;11.23;;;10.13;;
13743;SDS011;6943;52.368;9.966;2023-02-14T10:01:58;10.27;;;9.20;;
13743;SDS011;6943;52.368;9.966;2023-02-14T10:12:26;13.63;;;11.50;;
13743;SDS011;6943;52.368;9.966;2023-02-14T10:14:58;13.13;;;10.50;;
13743;SDS011;6943;52.368;9.966;2023-02-14T10:20:30;12.27;;;9.87;;
13743;SDS011;6943;52.368;9.966;2023-02-14T10:23:34;11.43;;;10.00;;
13743;SDS011;6943;52.368;9.966;2023-02-14T10:26:25;12.90;;;10.17;;
13743;SDS011;6943;52.368;9.966;2023-02-14T10:28:54;12.50;;;10.23;;
13743;SDS011;6943;52.368;9.966;2023-02-14T10:31:26;13.40;;;11.10;;
13743;SDS011;6943;52.368;9.966;2023-02-14T10:34:03;15.50;;;10.63;;
13743;SDS011;6943;52.368;9.966;2023-02-14T10:36:44;14.07;;;10.93;;
13743;SDS011;6943;52.368;9.966;2023-02-14T10:39:40;12.97;;;10.50;;
13743;SDS011;6943;52.368;9.966;2023-02-14T10:45:03;13.43;;;10.20;;
13743;SDS011;6943;52.368;9.966;2023-02-14T10:50:29;14.80;;;10.13;;
13743;SDS011;6943;52.368;9.966;2023-02-14T10:55:51;12.20;;;9.50;;
13743;SDS011;6943;52.368;9.966;2023-02-14T10:58:21;14.57;;;10.33;;
13743;SDS011;6943;52.368;9.966;2023-02-14T11:01:00;14.30;;;10.23;;
13743;SDS011;6943;52.368;9.966;2023-02-14T11:03:30;12.67;;;9.57;;
13743;SDS011;6943;52.368;9.966;2023-02-14T11:05:58;12.77;;;10.10;;
13743;SDS011;6943;52.368;9.966;2023-02-14T11:08:28;12.83;;;10.13;;
13743;SDS011;6943;52.368;9.966;2023-02-14T11:11:00;15.57;;;9.80;;
13743;SDS011;6943;52.368;9.966;2023-02-14T11:13:42;12.60;;;9.33;;
13743;SDS011;6943;52.368;9.966;2023-02-14T11:16:09;12.47;;;9.77;;
13743;SDS011;6943;52.368;9.966;2023-02-14T11:18:38;15.77;;;10.00;;
13743;SDS011;6943;52.368;9.966;2023-02-14T11:21:14;13.53;;;9.97;;
13743;SDS011;6943;52.368;9.966;2023-02-14T11:23:48;12.27;;;10.23;;
13743;SDS011;6943;52.368;9.966;2023-02-14T11:28:49;12.37;;;10.27;;
13743;SDS011;6943;52.368;9.966;2023-02-14T11:31:24;11.37;;;9.77;;
13743;SDS011;6943;52.368;9.966;2023-02-14T11:33:54;14.17;;;10.77;;
13743;SDS011;6943;52.368;9.966;2023-02-14T11:36:21;10.53;;;9.40;;
13743;SDS011;6943;52.368;9.966;2023-02-14T11:38:53;13.10;;;9.87;;
13743;SDS011;6943;52.368;9.966;2023-02-14T11:44:14;17.43;;;10.47;;
13743;SDS011;6943;52.368;9.966;2023-02-14T11:46:51;12.00;;;9.67;;
13743;SDS011;6943;52.368;9.966;2023-02-14T11:51:57;11.83;;;9.87;;
13743;SDS011;6943;52.368;9.966;2023-02-14T11:54:28;11.57;;;9.97;;
13743;SDS011;6943;52.368;9.966;2023-02-14T11:59:47;11.83;;;9.40;;
13743;SDS011;6943;52.368;9.966;2023-02-14T12:05:04;11.10;;;8.57;;
13743;SDS011;6943;52.368;9.966;2023-02-14T12:07:42;10.53;;;8.67;;
13743;SDS011;6943;52.368;9.966;2023-02-14T12:12:54;9.77;;;8.77;;
13743;SDS011;6943;52.368;9.966;2023-02-14T12:29:05;12.90;;;9.20;;
13743;SDS011;6943;52.368;9.966;2023-02-14T12:31:55;9.40;;;8.37;;
13743;SDS011;6943;52.368;9.966;2023-02-14T12:34:25;12.17;;;9.47;;
13743;SDS011;6943;52.368;9.966;2023-02-14T12:39:32;10.47;;;9.37;;
13743;SDS011;6943;52.368;9.966;2023-02-14T12:45:05;13.07;;;9.70;;
13743;SDS011;6943;52.368;9.966;2023-02-14T12:50:33;11.63;;;8.50;;
13743;SDS011;6943;52.368;9.966;2023-02-14T13:06:24;13.63;;;9.97;;
13743;SDS011;6943;52.368;9.966;2023-02-14T13:11:48;12.90;;;9.60;;
13743;SDS011;6943;52.368;9.966;2023-02-14T13:22:20;11.53;;;9.40;;
13743;SDS011;6943;52.368;9.966;2023-02-14T13:24:49;12.87;;;10.27;;
13743;SDS011;6943;52.368;9.966;2023-02-14T13:27:21;13.40;;;10.10;;
13743;SDS011;6943;52.368;9.966;2023-02-14T13:29:52;11.27;;;9.53;;
13743;SDS011;6943;52.368;9.966;2023-02-14T13:32:23;12.10;;;10.23;;
13743;SDS011;6943;52.368;9.966;2023-02-14T13:34:52;11.33;;;9.97;;
13743;SDS011;6943;52.368;9.966;2023-02-14T13:37:20;12.37;;;10.23;;
13743;SDS011;6943;52.368;9.966;2023-02-14T13:39:54;12.57;;;10.90;;
13743;SDS011;6943;52.368;9.966;2023-02-14T13:45:55;12.30;;;9.47;;
13743;SDS011;6943;52.368;9.966;2023-02-14T13:48:18;10.60;;;9.33;;
13743;SDS011;6943;52.368;9.966;2023-02-14T13:50:53;13.27;;;9.80;;
13743;SDS011;6943;52.368;9.966;2023-02-14T13:56:00;13.37;;;9.87;;
13743;SDS011;6943;52.368;9.966;2023-02-14T13:58:46;12.10;;;10.17;;
13743;SDS011;6943;52.368;9.966;2023-02-14T14:01:40;10.43;;;9.00;;
13743;SDS011;6943;52.368;9.966;2023-02-14T14:17:29;10.70;;;8.70;;
13743;SDS011;6943;52.368;9.966;2023-02-14T14:20:01;11.20;;;8.87;;
13743;SDS011;6943;52.368;9.966;2023-02-14T14:22:48;11.73;;;9.03;;
13743;SDS011;6943;52.368;9.966;2023-02-14T14:25:30;11.50;;;9.00;;
13743;SDS011;6943;52.368;9.966;2023-02-14T14:27:58;12.47;;;8.77;;
13743;SDS011;6943;52.368;9.966;2023-02-14T14:30:25;11.17;;;8.70;;
13743;SDS011;6943;52.368;9.966;2023-02-14T14:32:55;14.93;;;9.63;;
13743;SDS011;6943;52.368;9.966;2023-02-14T14:35:36;11.23;;;8.83;;
13743;SDS011;6943;52.368;9.966;2023-02-14T14:38:01;13.10;;;8.77;;
13743;SDS011;6943;52.368;9.966;2023-02-14T14:40:30;12.43;;;8.70;;
13743;SDS011;6943;52.368;9.966;2023-02-14T14:43:00;11.23;;;8.93;;
13743;SDS011;6943;52.368;9.966;2023-02-14T14:45:29;9.53;;;7.83;;
13743;SDS011;6943;52.368;9.966;2023-02-14T14:47:59;10.80;;;8.53;;
13743;SDS011;6943;52.368;9.966;2023-02-14T14:50:32;11.00;;;8.67;;
13743;SDS011;6943;52.368;9.966;2023-02-14T14:53:04;9.70;;;8.70;;
13743;SDS011;6943;52.368;9.966;2023-02-14T14:55:34;9.57;;;8.37;;
13743;SDS011;6943;52.368;9.966;2023-02-14T14:58:03;8.93;;;7.97;;
13743;SDS011;6943;52.368;9.966;2023-02-14T15:00:35;10.60;;;8.00;;
13743;SDS011;6943;52.368;9.966;2023-02-14T15:03:11;11.97;;;8.30;;
13743;SDS011;6943;52.368;9.966;2023-02-14T15:05:40;9.77;;;8.20;;
13743;SDS011;6943;52.368;9.966;2023-02-14T15:08:21;10.77;;;8.03;;
13743;SDS011;6943;52.368;9.966;2023-02-14T15:10:58;9.53;;;7.83;;
13743;SDS011;6943;52.368;9.966;2023-02-14T15:13:35;12.47;;;8.43;;
13743;SDS011;6943;52.368;9.966;2023-02-14T15:16:22;12.03;;;7.77;;
13743;SDS011;6943;52.368;9.966;2023-02-14T15:18:54;8.60;;;6.93;;
13743;SDS011;6943;52.368;9.966;2023-02-14T15:21:22;11.20;;;7.57;;
13743;SDS011;6943;52.368;9.966;2023-02-14T15:23:48;12.30;;;8.10;;
13743;SDS011;6943;52.368;9.966;2023-02-14T15:26:18;11.20;;;8.27;;
13743;SDS011;6943;52.368;9.966;2023-02-14T15:28:55;12.20;;;7.93;;
13743;SDS011;6943;52.368;9.966;2023-02-14T15:31:24;9.50;;;7.83;;
13743;SDS011;6943;52.368;9.966;2023-02-14T15:33:54;8.70;;;7.00;;
13743;SDS011;6943;52.368;9.966;2023-02-14T15:36:21;9.47;;;7.60;;
13743;SDS011;6943;52.368;9.966;2023-02-14T15:38:48;10.47;;;7.50;;
13743;SDS011;6943;52.368;9.966;2023-02-14T15:41:15;9.77;;;7.47;;
13743;SDS011;6943;52.368;9.966;2023-02-14T15:43:41;9.60;;;7.53;;
13743;SDS011;6943;52.368;9.966;2023-02-14T15:49:08;10.07;;;8.10;;
13743;SDS011;6943;52.368;9.966;2023-02-14T15:51:39;9.90;;;7.87;;
13743;SDS011;6943;52.368;9.966;2023-02-14T15:54:15;10.43;;;7.57;;
13743;SDS011;6943;52.368;9.966;2023-02-14T15:56:46;9.97;;;7.97;;
13743;SDS011;6943;52.368;9.966;2023-02-14T15:59:16;11.37;;;8.60;;
13743;SDS011;6943;52.368;9.966;2023-02-14T16:01:48;10.93;;;7.57;;
13743;SDS011;6943;52.368;9.966;2023-02-14T16:04:20;9.83;;;7.60;;
13743;SDS011;6943;52.368;9.966;2023-02-14T16:07:04;11.07;;;8.83;;
13743;SDS011;6943;52.368;9.966;2023-02-14T16:09:51;10.93;;;8.50;;
13743;SDS011;6943;52.368;9.966;2023-02-14T16:12:53;11.23;;;8.00;;
13743;SDS011;6943;52.368;9.966;2023-02-14T16:15:21;10.50;;;8.47;;
13743;SDS011;6943;52.368;9.966;2023-02-14T16:17:48;10.70;;;8.10;;
13743;SDS011;6943;52.368;9.966;2023-02-14T16:20:20;11.50;;;8.20;;
13743;SDS011;6943;52.368;9.966;2023-02-14T16:25:42;11.20;;;8.73;;
13743;SDS011;6943;52.368;9.966;2023-02-14T16:28:08;11.57;;;9.20;;
13743;SDS011;6943;52.368;9.966;2023-02-14T16:30:34;15.13;;;9.87;;
13743;SDS011;6943;52.368;9.966;2023-02-14T16:33:01;14.20;;;11.43;;
13743;SDS011;6943;52.368;9.966;2023-02-14T16:35:26;12.53;;;10.03;;
13743;SDS011;6943;52.368;9.966;2023-02-14T16:37:53;16.80;;;12.97;;
13743;SDS011;6943;52.368;9.966;2023-02-14T16:40:19;17.07;;;11.97;;
13743;SDS011;6943;52.368;9.966;2023-02-14T16:42:49;17.27;;;12.27;;
13743;SDS011;6943;52.368;9.966;2023-02-14T16:45:15;15.80;;;11.43;;
13743;SDS011;6943;52.368;9.966;2023-02-14T16:47:42;14.87;;;11.50;;
13743;SDS011;6943;52.368;9.966;2023-02-14T16:50:10;15.57;;;11.40;;
13743;SDS011;6943;52.368;9.966;2023-02-14T16:52:36;15.23;;;11.60;;
13743;SDS011;6943;52.368;9.966;2023-02-14T16:55:02;17.57;;;12.37;;
13743;SDS011;6943;52.368;9.966;2023-02-14T16:57:29;16.73;;;12.07;;
13743;SDS011;6943;52.368;9.966;2023-02-14T16:59:58;17.83;;;12.17;;
13743;SDS011;6943;52.368;9.966;2023-02-14T17:02:24;18.10;;;12.57;;
13743;SDS011;6943;52.368;9.966;2023-02-14T17:04:52;17.73;;;13.07;;
13743;SDS011;6943;52.368;9.966;2023-02-14T17:07:17;17.77;;;12.27;;